KBJCKEGE

Guest
Details From KBJC - Jeffco
To KEGE - Eagle Co Rgnl
Flight Number -
Tags Generated
Created
Modified
Stats Distance 85 nm / 157 km
Max Altitude 0 ft / 0 m
Waypoints 2
Social Downloads 0
Likes 0
Share VATSIM

Download

Looking for another format? Having issues loading an existing format? Contact us
Advertisement - Login to hide

Notes

Generated

Route

KBJC KEGE

ID Type Via Altitude Latitude Longitude Leg Dist Tot Dist Heading (true) Name
O KBJC APT - 0 ft / 0 m 39.90587˚ -105.11809˚ - 0 nm - Rocky Mountain Metropolitan Airport
O KEGE APT - 0 ft / 0 m 39.64472˚ -106.92333˚ 84 nm 84 nm 260° / 259° EAGLE CO RGNL

Altitude Profile

Advertisement - Login to hide

KBJC

Details ICAO KBJC (BJC)
Name Rocky Mountain Metropolitan Airport
Region United States
Timezone America/Denver (UTC-7.0)
Stats Elevation 5,670 ft / 1,728 m (AMSL)
Location 39.909018° -105.116968°
Runways 3
Magnetic Variation 8.298° E

METAR

KBJC 130935Z AUTO 31010G14KT 10SM CLR 12/M17 A3006 RMK AO2

Decode

TAF

TAF AMD KBJC 130646Z 1307/1406 31015G25KT P6SM FEW250 FM131100 VRB05KT P6SM BKN220 FM131700 32006KT P6SM FEW080 SCT200 FM132100 04008KT P6SM SCT080 BKN200 FM140000 06008KT P6SM VCSH SCT025 OVC050 PROB30 1403/1406 3SM -SN BR BKN015 OVC025

Decode

Departure Runways

ID Width Length Bearing (true) Bearing (mag) Surface Threshold Offset Overrun Length
02 75 ft / 23 m 3,601 ft / 1,098 m 34.18° 25.88° Asphalt 0 ft / 0 m 0 ft / 0 m
11L 100 ft / 30 m 8,990 ft / 2,740 m 124.39° 116.09° Asphalt 0 ft / 0 m 0 ft / 0 m
11R 75 ft / 23 m 6,995 ft / 2,132 m 124.39° 116.09° Asphalt 0 ft / 0 m 0 ft / 0 m
20 75 ft / 23 m 3,601 ft / 1,098 m 214.18° 205.88° Asphalt 0 ft / 0 m 0 ft / 0 m
29L 75 ft / 23 m 6,995 ft / 2,132 m 304.40° 296.10° Asphalt 0 ft / 0 m 0 ft / 0 m
29R 100 ft / 30 m 8,990 ft / 2,740 m 304.41° 296.11° Asphalt 0 ft / 0 m 0 ft / 0 m

KEGE

Details ICAO KEGE (EGE)
Name EAGLE CO RGNL
Region United States
Timezone America/Denver (UTC-7.0)
Stats Elevation 6,540 ft / 1,993 m (AMSL)
Location 39.642567° -106.917696°
Runways 1
Magnetic Variation 9.166° E

METAR

KEGE 130856Z AUTO 10003KT 10SM CLR M10/M12 A3036 RMK AO2 SLP330 T11001122 58007 FZRANO

Decode

TAF

KEGE 130531Z 1306/1406 13003KT P6SM SKC FM131900 26005KT P6SM FEW130 SCT250 FM140000 26004KT P6SM BKN110 BKN150 FM140300 34004KT P6SM BKN060 BKN100 AMD LTD TO CLD VIS AND WIND TIL 131400

Decode

Destination Runways

ID Width Length Bearing (true) Bearing (mag) Surface Threshold Offset Overrun Length
07 150 ft / 46 m 7,981 ft / 2,433 m 81.90° 72.73° Asphalt 0 ft / 0 m 0 ft / 0 m
25 150 ft / 46 m 7,981 ft / 2,433 m 261.92° 252.75° Asphalt 0 ft / 0 m 0 ft / 0 m

Approach Navaids

Runway Type Ident Frequency Range Bearing (true) Bearing (mag) Slope Elevation
25 Localiser IESJ 109.75 MHz 18 nm / 33 km 258.91° 249.74° - 6,461 ft / 1,969 m (AMSL)
25 DME IESJ 109.75 MHz 18 nm / 33 km - - - 6,473 ft / 1,973 m (AMSL)

Popular Alternatives